This is the latest recevied weather packets stored in our database for station/object W1LBM. If no packets are shown the sender has not sent any weather packets the latest 1 day(s).
| Time | Temp. | Humidity | Pressure | Rain* | Wind** | Luminosity | Snow |
|---|---|---|---|---|---|---|---|
| 1777992062 | 20.56° C | 60% | 1013.7 hPa | 0 mm | 0.45 m/s, 150° | 193 W/m² | - |
| 1777991759 | 20.56° C | 61% | 1013.9 hPa | 0 mm | 0 m/s | 329 W/m² | - |
| 1777991456 | 20° C | 60% | 1013.9 hPa | 0 mm | 2.24 m/s, 189° | 205 W/m² | - |
| 1777991153 | 20° C | 61% | 1013.9 hPa | 0 mm | 1.34 m/s, 198° | 160 W/m² | - |
| 1777990850 | 20° C | 62% | 1013.8 hPa | 0 mm | 0 m/s | 191 W/m² | - |
| 1777990548 | 20.56° C | 60% | 1013.9 hPa | 0 mm | 0.89 m/s, 189° | 213 W/m² | - |
| 1777990244 | 20.56° C | 60% | 1014.1 hPa | 0 mm | 0.89 m/s, 171° | 267 W/m² | - |
| 1777989941 | 20° C | 60% | 1013.8 hPa | 0 mm | 1.34 m/s, 175° | 341 W/m² | - |
| 1777989638 | 20° C | 61% | 1013.8 hPa | 0 mm | 2.24 m/s, 191° | 168 W/m² | - |
| 1777989334 | 19.44° C | 62% | 1013.8 hPa | 0 mm | 0.89 m/s, 168° | 267 W/m² | - |
| 1777989031 | 19.44° C | 63% | 1014.1 hPa | 0 mm | 0.89 m/s, 164° | 164 W/m² | - |
| 1777988727 | 18.89° C | 64% | 1013.9 hPa | 0 mm | 0.89 m/s, 139° | 226 W/m² | - |
| 1777988424 | 18.89° C | 66% | 1013.8 hPa | 0 mm | 0 m/s | 106 W/m² | - |
| 1777988121 | 18.89° C | 64% | 1014.3 hPa | 0 mm | 0 m/s | 124 W/m² | - |
| 1777987817 | 18.89° C | 65% | 1014.1 hPa | 0 mm | 0 m/s | 211 W/m² | - |
| 1777987514 | 18.89° C | 65% | 1014.2 hPa | 0 mm | 0 m/s | 131 W/m² | - |
| 1777987212 | 18.89° C | 64% | 1014.2 hPa | 0 mm | 1.79 m/s, 183° | 315 W/m² | - |
| 1777986908 | 18.89° C | 65% | 1014.4 hPa | 0 mm | 0.45 m/s, 142° | 202 W/m² | - |
| 1777986606 | 17.78° C | 67% | 1014.3 hPa | 0 mm | 0.45 m/s, 159° | 218 W/m² | - |
| 1777986303 | 17.78° C | 67% | 1014.3 hPa | 0 mm | 0.45 m/s, 164° | 125 W/m² | - |
| 1777986001 | 17.78° C | 69% | 1014.5 hPa | 0 mm | 0.45 m/s, 147° | 105 W/m² | - |
| 1777985698 | 17.22° C | 69% | 1014.5 hPa | 0 mm | 0.89 m/s, 103° | 103 W/m² | - |
| 1777985395 | 17.22° C | 71% | 1014.4 hPa | 0 mm | 0.45 m/s, 141° | 98 W/m² | - |
| 1777985091 | 17.22° C | 70% | 1014.5 hPa | 0 mm | 0 m/s | 142 W/m² | - |
| 1777984787 | 16.67° C | 72% | 1014.4 hPa | 0 mm | 0.89 m/s, 194° | 159 W/m² | - |
* Rain latest hour (hover to see other rain measurements)
** Current wind speed in m/s (hover to see current wind gust speed)